createdAt,value
2019-02-19T00:02:28.452Z,15.25
2019-02-19T00:04:57.163Z,12.23
2019-02-19T00:07:25.802Z,14.47
2019-02-19T00:09:54.602Z,13.38
2019-02-19T00:12:23.230Z,13.30
2019-02-19T00:14:51.831Z,14.93
2019-02-19T00:17:20.540Z,15.45
2019-02-19T00:19:49.154Z,15.25
2019-02-19T00:22:17.806Z,11.43
2019-02-19T00:24:46.552Z,13.05
2019-02-19T00:27:15.252Z,12.07
2019-02-19T00:29:43.859Z,14.75
2019-02-19T00:32:12.494Z,12.10
2019-02-19T00:34:41.102Z,13.68
2019-02-19T00:37:09.903Z,14.60
2019-02-19T00:39:38.460Z,12.55
2019-02-19T00:42:07.076Z,10.75
2019-02-19T00:44:35.710Z,11.93
2019-02-19T00:47:04.328Z,12.90
2019-02-19T00:49:32.928Z,13.88
2019-02-19T00:52:01.554Z,12.28
2019-02-19T00:54:30.176Z,14.83
2019-02-19T00:56:58.803Z,12.00
2019-02-19T00:59:27.417Z,12.63
2019-02-19T01:01:56.064Z,9.93
2019-02-19T01:04:24.738Z,11.95
2019-02-19T01:06:53.365Z,10.88
2019-02-19T01:09:21.986Z,12.15
2019-02-19T01:14:24.730Z,11.75
2019-02-19T01:16:53.348Z,10.60
2019-02-19T01:19:21.977Z,12.95
2019-02-19T01:21:50.623Z,11.00
2019-02-19T01:24:19.237Z,13.20
2019-02-19T01:26:47.854Z,12.13
2019-02-19T01:29:16.475Z,10.48
2019-02-19T01:31:45.099Z,12.35
2019-02-19T01:34:13.741Z,11.40
2019-02-19T01:36:42.386Z,13.08
2019-02-19T01:39:11.015Z,13.20
2019-02-19T01:41:39.623Z,12.73
2019-02-19T01:44:08.258Z,12.45
2019-02-19T01:46:36.881Z,12.10
2019-02-19T01:49:05.598Z,10.40
2019-02-19T01:51:34.221Z,13.93
2019-02-19T01:54:02.839Z,13.45
2019-02-19T01:56:31.449Z,16.32
2019-02-19T01:59:00.084Z,14.07
2019-02-19T02:01:28.701Z,14.13
2019-02-19T02:03:57.334Z,10.40
2019-02-19T02:06:25.955Z,12.78
2019-02-19T02:08:54.583Z,11.15
2019-02-19T02:11:23.204Z,13.38
2019-02-19T02:13:51.833Z,15.95
2019-02-19T02:16:20.455Z,10.15
2019-02-19T02:18:49.083Z,12.07
2019-02-19T02:21:17.679Z,11.20
2019-02-19T02:23:46.325Z,15.23
2019-02-19T02:26:14.938Z,11.33
2019-02-19T02:28:43.555Z,15.88
2019-02-19T02:31:12.249Z,14.05
2019-02-19T02:33:40.853Z,13.22
2019-02-19T02:36:09.497Z,15.35
2019-02-19T02:38:38.123Z,18.73
2019-02-19T02:41:06.769Z,12.37
2019-02-19T02:43:35.387Z,11.83
2019-02-19T02:46:04.124Z,16.95
2019-02-19T02:48:32.773Z,14.33
2019-02-19T02:51:01.367Z,14.28
2019-02-19T02:53:29.995Z,11.93
2019-02-19T02:55:58.622Z,15.25
2019-02-19T02:58:27.237Z,13.58
2019-02-19T03:00:55.864Z,16.48
2019-02-19T03:03:24.479Z,16.97
2019-02-19T03:06:31.334Z,13.48
2019-02-19T03:08:59.945Z,15.43
2019-02-19T03:11:28.640Z,14.63
2019-02-19T03:13:57.317Z,12.65
2019-02-19T03:16:25.935Z,14.30
2019-02-19T03:18:54.573Z,14.55
2019-02-19T03:21:23.198Z,13.15
2019-02-19T03:23:51.881Z,13.10
2019-02-19T03:26:20.502Z,12.93
2019-02-19T03:28:49.262Z,12.63
2019-02-19T03:31:17.923Z,13.48
2019-02-19T03:33:46.541Z,15.08
2019-02-19T03:36:15.171Z,14.35
2019-02-19T03:38:43.784Z,18.90
2019-02-19T03:41:12.413Z,14.53
2019-02-19T03:43:41.027Z,18.40
2019-02-19T03:46:12.472Z,17.92
2019-02-19T03:48:40.029Z,13.32
2019-02-19T03:51:08.655Z,16.15
2019-02-19T03:53:37.305Z,14.20
2019-02-19T03:56:05.996Z,14.53
2019-02-19T03:58:34.678Z,13.68
2019-02-19T04:01:03.349Z,12.80
2019-02-19T04:03:32.053Z,12.98
2019-02-19T04:06:00.733Z,10.58
2019-02-19T04:08:29.400Z,16.55
2019-02-19T04:10:58.013Z,11.38
2019-02-19T04:13:26.645Z,15.53
2019-02-19T04:15:55.251Z,16.15
2019-02-19T04:18:23.887Z,12.73
2019-02-19T04:20:52.549Z,14.98
2019-02-19T04:23:21.173Z,16.25
2019-02-19T04:25:49.798Z,13.70
2019-02-19T04:28:18.443Z,17.25
2019-02-19T04:30:47.051Z,17.23
2019-02-19T04:33:15.687Z,13.65
2019-02-19T04:35:44.346Z,16.55
2019-02-19T04:38:12.972Z,15.13
2019-02-19T04:40:41.600Z,15.58
2019-02-19T04:43:10.239Z,14.90
2019-02-19T04:45:38.833Z,14.18
2019-02-19T04:48:07.453Z,14.80
2019-02-19T04:50:36.073Z,12.63
2019-02-19T04:53:04.710Z,14.18
2019-02-19T04:55:33.334Z,14.50
2019-02-19T04:58:01.985Z,16.00
2019-02-19T05:00:30.743Z,15.83
2019-02-19T05:02:59.360Z,13.78
2019-02-19T05:05:27.991Z,15.68
2019-02-19T05:07:56.606Z,17.48
2019-02-19T05:10:25.223Z,15.32
2019-02-19T05:12:53.841Z,15.70
2019-02-19T05:15:22.492Z,17.02
2019-02-19T05:17:51.203Z,13.72
2019-02-19T05:20:19.857Z,15.15
2019-02-19T05:22:48.533Z,13.88
2019-02-19T05:25:17.211Z,13.88
2019-02-19T05:27:45.919Z,13.72
2019-02-19T05:30:14.584Z,17.15
2019-02-19T05:32:43.216Z,18.27
2019-02-19T05:35:11.933Z,17.00
2019-02-19T05:37:40.604Z,14.58
2019-02-19T05:40:09.546Z,16.77
2019-02-19T05:42:38.259Z,13.13
2019-02-19T05:45:07.135Z,15.80
2019-02-19T05:47:35.940Z,14.33
2019-02-19T05:50:04.691Z,12.40
2019-02-19T05:52:33.388Z,13.72
2019-02-19T05:55:02.011Z,14.85
2019-02-19T05:57:30.681Z,11.95
2019-02-19T05:59:59.293Z,18.82
2019-02-19T06:02:27.999Z,13.83
2019-02-19T06:04:56.620Z,14.87
2019-02-19T06:07:25.246Z,16.55
2019-02-19T06:09:53.932Z,13.53
2019-02-19T06:12:22.565Z,14.43
2019-02-19T06:14:51.195Z,13.85
2019-02-19T06:17:19.825Z,14.90
2019-02-19T06:19:48.452Z,14.20
2019-02-19T06:22:17.070Z,15.03
2019-02-19T06:27:21.379Z,16.82
2019-02-19T06:29:49.994Z,13.93
2019-02-19T06:32:18.621Z,14.75
2019-02-19T06:34:47.250Z,16.02
2019-02-19T06:37:15.878Z,13.40
2019-02-19T06:39:44.496Z,15.32
2019-02-19T06:42:13.114Z,14.70
2019-02-19T06:44:41.809Z,17.12
2019-02-19T06:47:10.441Z,19.55
2019-02-19T06:49:39.152Z,14.63
2019-02-19T06:52:07.832Z,15.68
2019-02-19T06:54:36.468Z,18.70
2019-02-19T06:57:05.120Z,16.20
2019-02-19T06:59:33.768Z,14.73
2019-02-19T07:02:21.373Z,18.62
2019-02-19T07:05:09.023Z,15.60
2019-02-19T07:07:37.659Z,15.43
2019-02-19T07:10:06.561Z,15.20
2019-02-19T07:12:35.195Z,17.48
2019-02-19T07:15:04.178Z,15.85
2019-02-19T07:17:32.795Z,24.75
2019-02-19T07:20:01.424Z,16.73
2019-02-19T07:22:30.037Z,15.98
2019-02-19T07:24:58.671Z,14.18
2019-02-19T07:27:27.281Z,16.80
2019-02-19T07:29:55.921Z,13.90
2019-02-19T07:32:24.537Z,12.65
2019-02-19T07:34:53.170Z,15.63
2019-02-19T07:37:21.784Z,14.68
2019-02-19T07:39:50.407Z,13.60
2019-02-19T07:42:19.030Z,19.73
2019-02-19T07:44:47.660Z,19.57
2019-02-19T07:47:24.246Z,18.98
2019-02-19T07:49:46.647Z,16.35
2019-02-19T07:52:15.278Z,11.20
2019-02-19T07:54:44.040Z,16.25
2019-02-19T07:57:12.661Z,16.32
2019-02-19T07:59:41.279Z,15.93
2019-02-19T08:02:09.922Z,12.78
2019-02-19T08:04:38.547Z,12.78
2019-02-19T08:07:07.254Z,13.80
2019-02-19T08:09:35.952Z,21.12
2019-02-19T08:12:04.578Z,17.50
2019-02-19T08:14:33.202Z,18.27
2019-02-19T08:17:01.901Z,14.10
2019-02-19T08:19:30.521Z,14.98
2019-02-19T08:21:59.183Z,16.77
2019-02-19T08:24:27.801Z,16.52
2019-02-19T08:26:56.450Z,16.27
2019-02-19T08:29:25.076Z,16.52
2019-02-19T08:31:53.717Z,15.85
2019-02-19T08:34:22.404Z,18.70
2019-02-19T08:36:51.036Z,25.15
2019-02-19T08:39:19.658Z,22.35
2019-02-19T08:41:48.266Z,16.73
2019-02-19T08:44:16.891Z,31.82
2019-02-19T08:46:45.528Z,14.43
2019-02-19T08:49:14.154Z,17.02
2019-02-19T08:51:42.775Z,20.75
2019-02-19T08:54:11.414Z,24.05
2019-02-19T08:56:40.031Z,16.73
2019-02-19T08:59:08.663Z,22.00
2019-02-19T09:01:37.378Z,19.10
2019-02-19T09:04:06.022Z,23.60
2019-02-19T09:06:34.650Z,16.90
2019-02-19T09:11:39.203Z,18.52
2019-02-19T09:14:07.843Z,21.35
2019-02-19T09:16:36.543Z,19.25
2019-02-19T09:19:05.264Z,18.73
2019-02-19T09:21:33.877Z,20.25
2019-02-19T09:24:09.226Z,18.85
2019-02-19T09:26:32.898Z,17.20
2019-02-19T09:29:01.534Z,16.42
2019-02-19T09:31:30.170Z,19.32
2019-02-19T09:33:58.807Z,17.05
2019-02-19T09:36:27.442Z,16.70
2019-02-19T09:38:56.083Z,17.35
2019-02-19T09:41:24.702Z,18.60
2019-02-19T09:43:53.381Z,21.23
2019-02-19T09:46:22.029Z,20.25
2019-02-19T09:48:50.697Z,25.35
2019-02-19T09:51:19.351Z,20.97
2019-02-19T09:53:47.984Z,24.02
2019-02-19T09:56:16.615Z,21.52
2019-02-19T09:58:45.228Z,25.17
2019-02-19T10:01:13.956Z,24.60
2019-02-19T10:03:42.584Z,22.82
2019-02-19T10:06:11.211Z,23.70
2019-02-19T10:08:39.835Z,24.87
2019-02-19T10:11:08.494Z,30.60
2019-02-19T10:13:37.115Z,26.85
2019-02-19T10:16:05.819Z,30.52
2019-02-19T10:18:34.478Z,26.73
2019-02-19T10:21:03.113Z,28.30
2019-02-19T10:23:31.756Z,27.80
2019-02-19T10:26:00.363Z,37.90
2019-02-19T10:28:28.988Z,31.30
2019-02-19T10:30:57.674Z,28.87
2019-02-19T10:33:26.330Z,37.05
2019-02-19T10:35:54.957Z,26.65
2019-02-19T10:38:23.586Z,24.27
2019-02-19T10:40:52.311Z,30.85
2019-02-19T10:43:20.924Z,24.75
2019-02-19T10:45:49.573Z,30.65
2019-02-19T10:48:19.254Z,28.50
2019-02-19T10:50:48.604Z,22.75
2019-02-19T10:53:17.279Z,29.12
2019-02-19T10:55:45.902Z,22.02
2019-02-19T10:58:22.629Z,20.45
2019-02-19T11:00:45.035Z,22.25
2019-02-19T11:03:13.659Z,27.55
2019-02-19T11:05:42.430Z,22.73
2019-02-19T11:08:11.087Z,23.65
2019-02-19T11:10:39.711Z,21.60
2019-02-19T11:13:08.339Z,26.12
2019-02-19T11:15:36.963Z,21.33
2019-02-19T11:18:05.606Z,33.85
2019-02-19T11:20:34.305Z,27.60
2019-02-19T11:23:02.926Z,19.40
2019-02-19T11:25:31.547Z,24.50
2019-02-19T11:28:00.190Z,24.63
2019-02-19T11:30:28.938Z,22.48
2019-02-19T11:32:57.573Z,23.42
2019-02-19T11:35:26.266Z,18.80
2019-02-19T11:37:54.897Z,23.35
2019-02-19T11:40:23.590Z,19.62
2019-02-19T11:42:52.216Z,22.98
2019-02-19T11:45:20.933Z,21.10
2019-02-19T11:47:49.576Z,23.85
2019-02-19T11:50:18.232Z,23.07
2019-02-19T11:52:46.840Z,20.95
2019-02-19T11:55:15.487Z,24.98
2019-02-19T11:58:03.331Z,27.30
2019-02-19T12:00:34.955Z,24.70
2019-02-19T12:03:03.694Z,20.75
2019-02-19T12:05:32.390Z,20.80
2019-02-19T12:08:01.069Z,17.50
2019-02-19T12:10:29.704Z,18.23
2019-02-19T12:12:58.369Z,18.12
2019-02-19T12:15:34.912Z,19.30
2019-02-19T12:17:57.381Z,17.55
2019-02-19T12:20:26.031Z,16.10
2019-02-19T12:22:54.639Z,18.53
2019-02-19T12:25:23.388Z,17.48
2019-02-19T12:27:52.003Z,13.15
2019-02-19T12:30:20.749Z,13.45
2019-02-19T12:32:49.368Z,15.67
2019-02-19T12:35:18.090Z,13.60
2019-02-19T12:37:46.729Z,15.90
2019-02-19T12:40:15.489Z,12.73
2019-02-19T12:42:44.106Z,12.40
2019-02-19T12:45:12.832Z,13.55
2019-02-19T12:47:41.475Z,14.43
2019-02-19T12:50:11.519Z,13.32
2019-02-19T12:52:40.233Z,15.50
2019-02-19T12:55:09.653Z,16.03
2019-02-19T12:57:38.318Z,11.87
2019-02-19T13:00:09.537Z,16.80
2019-02-19T13:02:38.202Z,15.33
2019-02-19T13:05:08.326Z,11.90
2019-02-19T13:07:37.029Z,11.63
2019-02-19T13:10:05.827Z,13.20
2019-02-19T13:12:34.439Z,11.97
2019-02-19T13:15:03.068Z,14.97
2019-02-19T13:17:34.745Z,11.23
2019-02-19T13:20:03.525Z,10.33
2019-02-19T13:22:32.162Z,12.55
2019-02-19T13:25:00.767Z,10.23
2019-02-19T13:27:29.521Z,11.27
2019-02-19T13:29:58.176Z,10.83
2019-02-19T13:32:26.786Z,7.17
2019-02-19T13:34:55.394Z,8.23
2019-02-19T13:37:24.012Z,9.90
2019-02-19T13:39:52.648Z,8.83
2019-02-19T13:42:21.396Z,7.07
2019-02-19T13:45:09.792Z,5.35
2019-02-19T13:47:38.529Z,4.30
2019-02-19T13:50:09.763Z,5.53
2019-02-19T13:52:57.412Z,4.87
2019-02-19T13:55:29.682Z,3.67
2019-02-19T13:57:58.296Z,4.10
2019-02-19T14:03:16.348Z,5.40
2019-02-19T14:05:44.947Z,3.57
2019-02-19T14:08:14.777Z,3.37
2019-02-19T14:10:43.982Z,3.87
2019-02-19T14:13:12.608Z,3.73
2019-02-19T14:16:00.316Z,3.90
2019-02-19T14:22:02.324Z,5.47
2019-02-19T14:24:42.859Z,3.57
2019-02-19T14:27:30.471Z,3.10
2019-02-19T14:30:18.151Z,5.10
2019-02-19T14:33:05.742Z,4.70
2019-02-19T14:35:53.367Z,3.00
2019-02-19T14:38:41.028Z,7.78
2019-02-19T14:41:28.740Z,2.60
2019-02-19T14:44:08.458Z,3.23
2019-02-19T14:46:56.168Z,2.83
2019-02-19T14:49:47.306Z,3.80
2019-02-19T14:52:33.248Z,4.13
2019-02-19T14:55:20.872Z,4.00
2019-02-19T14:58:06.617Z,2.20
2019-02-19T15:00:54.417Z,3.67
2019-02-19T15:03:42.032Z,7.57
2019-02-19T15:06:29.647Z,1.70
2019-02-19T15:09:17.288Z,3.80
2019-02-19T15:12:04.948Z,5.00
2019-02-19T15:14:52.599Z,4.27
2019-02-19T15:17:40.229Z,2.17
2019-02-19T15:20:27.952Z,4.60
2019-02-19T15:23:15.594Z,5.77
2019-02-19T15:26:03.246Z,3.80
2019-02-19T15:28:50.890Z,4.33
2019-02-19T15:31:38.541Z,2.70
2019-02-19T15:34:26.167Z,2.93
2019-02-19T15:37:13.806Z,6.07
2019-02-19T15:40:01.433Z,2.05
2019-02-19T15:42:57.859Z,6.30
2019-02-19T15:45:45.489Z,1.50
2019-02-19T15:48:33.209Z,3.53
2019-02-19T15:51:20.856Z,6.50
2019-02-19T15:54:08.531Z,3.67
2019-02-19T15:56:56.170Z,4.00
2019-02-19T15:59:41.650Z,4.77
2019-02-19T16:02:29.296Z,5.53
2019-02-19T16:05:17.110Z,4.23
2019-02-19T16:20:01.050Z,3.97
2019-02-19T16:22:48.689Z,4.83
2019-02-19T16:25:36.293Z,4.60
2019-02-19T16:28:24.022Z,1.67
2019-02-19T16:31:11.691Z,2.67
2019-02-19T16:33:59.384Z,5.27
2019-02-19T16:36:46.998Z,5.40
2019-02-19T16:39:34.613Z,3.03
2019-02-19T16:42:11.716Z,5.20
2019-02-19T16:44:59.429Z,3.93
2019-02-19T16:47:47.064Z,5.57
2019-02-19T16:50:34.668Z,2.87
2019-02-19T16:53:22.279Z,3.00
2019-02-19T16:56:00.856Z,4.00
2019-02-19T16:58:48.537Z,2.70
2019-02-19T17:01:29.182Z,4.00
2019-02-19T17:04:08.607Z,5.07
2019-02-19T17:06:58.283Z,4.73
2019-02-19T17:09:46.267Z,3.90
2019-02-19T17:12:34.125Z,4.20
2019-02-19T17:15:21.847Z,4.30
2019-02-19T17:18:09.891Z,5.45
2019-02-19T17:20:57.753Z,4.53
2019-02-19T17:23:43.808Z,4.40
2019-02-19T17:26:32.135Z,7.20
2019-02-19T17:35:20.068Z,4.33
2019-02-19T17:41:05.467Z,3.65
2019-02-19T17:43:57.171Z,2.50
2019-02-19T17:49:39.138Z,4.17
2019-02-19T17:52:26.852Z,3.35
2019-02-19T17:55:02.614Z,6.70
2019-02-19T17:57:50.458Z,3.62
2019-02-19T18:00:38.293Z,4.37
2019-02-19T18:03:25.918Z,3.65
2019-02-19T18:06:13.560Z,3.45
2019-02-19T18:08:50.396Z,5.10
2019-02-19T18:11:38.012Z,6.30
2019-02-19T18:14:25.627Z,3.62
2019-02-19T18:17:13.257Z,3.33
2019-02-19T18:19:41.888Z,3.35
2019-02-19T18:22:10.533Z,5.17
2019-02-19T18:24:39.168Z,3.77
2019-02-19T18:27:07.822Z,5.35
2019-02-19T18:29:36.442Z,7.12
2019-02-19T18:32:05.110Z,4.00
2019-02-19T18:34:33.740Z,6.10
2019-02-19T18:37:02.486Z,5.65
2019-02-19T18:39:31.125Z,6.83
2019-02-19T18:41:59.743Z,4.90
2019-02-19T18:44:28.383Z,4.75
2019-02-19T18:46:57.055Z,3.72
2019-02-19T18:49:25.690Z,3.77
2019-02-19T18:51:54.299Z,3.58
2019-02-19T18:54:23.020Z,7.80
2019-02-19T18:56:51.646Z,5.42
2019-02-19T18:59:20.253Z,8.90
2019-02-19T19:01:48.908Z,5.35
2019-02-19T19:04:17.578Z,5.67
2019-02-19T19:06:46.218Z,6.67
2019-02-19T19:09:14.857Z,15.53
2019-02-19T19:11:43.464Z,12.47
2019-02-19T19:14:12.097Z,13.43
2019-02-19T19:16:40.845Z,10.10
2019-02-19T19:19:09.495Z,11.00
2019-02-19T19:21:38.204Z,12.30
2019-02-19T19:24:06.844Z,11.40
2019-02-19T19:26:35.493Z,13.95
2019-02-19T19:29:04.280Z,17.57
2019-02-19T19:31:34.089Z,14.00
2019-02-19T19:34:03.810Z,13.83
2019-02-19T19:36:32.650Z,11.28
2019-02-19T19:39:01.532Z,7.95
2019-02-19T19:41:30.334Z,10.30
2019-02-19T19:43:59.101Z,6.95
2019-02-19T19:46:27.846Z,6.00
2019-02-19T19:48:57.033Z,6.40
2019-02-19T19:51:25.810Z,4.20
2019-02-19T19:53:54.498Z,9.00
2019-02-19T19:56:23.293Z,5.10
2019-02-19T19:58:51.990Z,6.67
2019-02-19T20:01:20.749Z,8.15
2019-02-19T20:03:49.471Z,4.53
2019-02-19T20:06:19.118Z,5.37
2019-02-19T20:08:47.838Z,4.83
2019-02-19T20:11:16.521Z,6.12
2019-02-19T20:13:45.632Z,6.75
2019-02-19T20:16:14.528Z,5.80
2019-02-19T20:18:43.324Z,5.25
2019-02-19T20:21:12.147Z,7.58
2019-02-19T20:23:40.912Z,5.90
2019-02-19T20:28:57.515Z,7.37
2019-02-19T20:31:26.233Z,6.35
2019-02-19T20:33:54.998Z,3.98
2019-02-19T20:36:23.748Z,6.08
2019-02-19T20:38:52.500Z,4.75
2019-02-19T20:41:24.204Z,4.33
2019-02-19T20:43:52.932Z,4.80
2019-02-19T20:46:21.825Z,6.37
2019-02-19T20:48:50.582Z,9.20
2019-02-19T20:51:19.261Z,4.08
2019-02-19T20:53:48.028Z,4.50
2019-02-19T20:56:16.728Z,6.53
2019-02-19T20:58:45.480Z,4.83
2019-02-19T21:01:14.148Z,5.78
2019-02-19T21:03:44.142Z,7.17
2019-02-19T21:06:53.331Z,4.80
2019-02-19T21:09:22.035Z,8.15
2019-02-19T21:11:50.904Z,4.83
2019-02-19T21:14:19.630Z,6.22
2019-02-19T21:16:48.333Z,6.00
2019-02-19T21:19:17.124Z,5.25
2019-02-19T21:22:05.251Z,5.08
2019-02-19T21:24:34.121Z,5.53
2019-02-19T21:27:02.799Z,4.40
2019-02-19T21:29:32.231Z,5.60
2019-02-19T21:32:01.022Z,6.65
2019-02-19T21:34:29.760Z,7.10
2019-02-19T21:37:01.110Z,8.53
2019-02-19T21:39:29.871Z,8.20
2019-02-19T21:41:59.421Z,7.20
2019-02-19T21:44:28.089Z,6.28
2019-02-19T21:46:56.924Z,7.12
2019-02-19T21:49:25.817Z,10.93
2019-02-19T21:51:54.546Z,9.50
2019-02-19T21:54:23.325Z,7.25
2019-02-19T21:56:52.264Z,6.60
2019-02-19T21:59:23.393Z,9.68
2019-02-19T22:01:52.159Z,5.92
2019-02-19T22:04:20.891Z,7.20
2019-02-19T22:06:50.026Z,9.78
2019-02-19T22:09:18.764Z,6.42
2019-02-19T22:11:47.639Z,9.43
2019-02-19T22:14:16.428Z,9.55
2019-02-19T22:16:45.153Z,8.40
2019-02-19T22:19:13.990Z,7.70
2019-02-19T22:24:53.226Z,6.50
2019-02-19T22:27:22.012Z,9.05
2019-02-19T22:29:50.862Z,7.03
2019-02-19T22:35:09.371Z,8.75
2019-02-19T22:37:38.041Z,7.50
2019-02-19T22:40:06.857Z,8.18
2019-02-19T22:42:36.072Z,11.45
2019-02-19T22:45:44.522Z,13.65
2019-02-19T22:48:13.205Z,8.13
2019-02-19T22:50:41.933Z,9.60
2019-02-19T22:53:29.606Z,6.80
2019-02-19T22:56:06.823Z,7.75
2019-02-19T22:58:35.577Z,6.15
2019-02-19T23:01:44.045Z,8.80
2019-02-19T23:04:13.043Z,7.03
2019-02-19T23:06:41.890Z,10.75
2019-02-19T23:09:10.584Z,7.00
2019-02-19T23:11:39.280Z,9.20
2019-02-19T23:14:08.385Z,15.80
2019-02-19T23:16:37.155Z,7.37
2019-02-19T23:19:24.958Z,8.08
2019-02-19T23:21:53.739Z,4.83
2019-02-19T23:24:22.554Z,7.42
2019-02-19T23:26:51.505Z,7.53
2019-02-19T23:29:20.181Z,10.72
2019-02-19T23:31:49.003Z,8.08
2019-02-19T23:34:17.812Z,5.78
2019-02-19T23:39:44.071Z,7.62
2019-02-19T23:42:14.002Z,9.30
2019-02-19T23:44:42.651Z,6.95
2019-02-19T23:47:11.364Z,11.97
2019-02-19T23:49:39.993Z,6.12
2019-02-19T23:52:08.697Z,8.73
2019-02-19T23:54:37.408Z,5.80
2019-02-19T23:57:06.031Z,6.22
2019-02-19T23:59:34.691Z,8.60
